sensor_id;sensor_type;location;lat;lon;timestamp;temperature;humidity
35591;DHT22;30355;50.556;10.012;2024-02-28T00:00:49;6.20;66.40
35591;DHT22;30355;50.556;10.012;2024-02-28T00:10:53;6.20;66.40
35591;DHT22;30355;50.556;10.012;2024-02-28T00:20:55;6.30;66.50
35591;DHT22;30355;50.556;10.012;2024-02-28T00:30:57;6.40;66.50
35591;DHT22;30355;50.556;10.012;2024-02-28T00:41:00;6.30;66.40
35591;DHT22;30355;50.556;10.012;2024-02-28T00:51:02;6.20;66.40
35591;DHT22;30355;50.556;10.012;2024-02-28T01:01:04;6.10;66.60
35591;DHT22;30355;50.556;10.012;2024-02-28T01:11:08;6.10;66.70
35591;DHT22;30355;50.556;10.012;2024-02-28T01:21:10;6.10;66.50
35591;DHT22;30355;50.556;10.012;2024-02-28T01:31:12;6.00;66.30
35591;DHT22;30355;50.556;10.012;2024-02-28T01:41:14;5.90;66.60
35591;DHT22;30355;50.556;10.012;2024-02-28T01:51:17;5.90;66.70
35591;DHT22;30355;50.556;10.012;2024-02-28T02:01:19;5.80;66.60
35591;DHT22;30355;50.556;10.012;2024-02-28T02:11:26;5.80;66.70
35591;DHT22;30355;50.556;10.012;2024-02-28T02:21:34;5.80;67.00
35591;DHT22;30355;50.556;10.012;2024-02-28T02:31:39;5.80;67.60
35591;DHT22;30355;50.556;10.012;2024-02-28T02:41:42;5.90;67.10
35591;DHT22;30355;50.556;10.012;2024-02-28T02:51:44;5.90;67.10
35591;DHT22;30355;50.556;10.012;2024-02-28T03:01:48;5.90;66.80
35591;DHT22;30355;50.556;10.012;2024-02-28T03:11:51;5.80;67.10
35591;DHT22;30355;50.556;10.012;2024-02-28T03:21:53;5.80;67.20
35591;DHT22;30355;50.556;10.012;2024-02-28T03:31:55;5.90;67.20
35591;DHT22;30355;50.556;10.012;2024-02-28T03:41:58;5.90;67.10
35591;DHT22;30355;50.556;10.012;2024-02-28T03:52:00;5.90;66.90
35591;DHT22;30355;50.556;10.012;2024-02-28T04:02:03;5.80;66.50
35591;DHT22;30355;50.556;10.012;2024-02-28T04:12:05;5.70;66.40
35591;DHT22;30355;50.556;10.012;2024-02-28T04:22:07;5.60;66.10
35591;DHT22;30355;50.556;10.012;2024-02-28T04:32:09;5.40;66.20
35591;DHT22;30355;50.556;10.012;2024-02-28T04:42:13;5.20;66.00
35591;DHT22;30355;50.556;10.012;2024-02-28T04:52:15;5.10;66.90
35591;DHT22;30355;50.556;10.012;2024-02-28T05:02:17;4.90;66.20
35591;DHT22;30355;50.556;10.012;2024-02-28T05:12:19;4.80;66.30
35591;DHT22;30355;50.556;10.012;2024-02-28T05:22:21;4.70;66.20
35591;DHT22;30355;50.556;10.012;2024-02-28T05:32:23;4.50;66.10
35591;DHT22;30355;50.556;10.012;2024-02-28T05:42:25;4.40;66.10
35591;DHT22;30355;50.556;10.012;2024-02-28T05:52:27;4.30;66.10
35591;DHT22;30355;50.556;10.012;2024-02-28T06:02:29;4.10;66.10
35591;DHT22;30355;50.556;10.012;2024-02-28T06:12:31;4.00;66.10
35591;DHT22;30355;50.556;10.012;2024-02-28T06:22:33;3.90;66.00
35591;DHT22;30355;50.556;10.012;2024-02-28T06:32:35;3.80;66.10
35591;DHT22;30355;50.556;10.012;2024-02-28T06:42:37;3.70;66.10
35591;DHT22;30355;50.556;10.012;2024-02-28T06:52:39;3.70;66.20
35591;DHT22;30355;50.556;10.012;2024-02-28T07:02:42;3.60;66.30
35591;DHT22;30355;50.556;10.012;2024-02-28T07:12:44;3.60;66.40
35591;DHT22;30355;50.556;10.012;2024-02-28T07:22:47;3.60;66.70
35591;DHT22;30355;50.556;10.012;2024-02-28T07:32:49;3.60;66.60
35591;DHT22;30355;50.556;10.012;2024-02-28T07:42:55;3.70;66.80
35591;DHT22;30355;50.556;10.012;2024-02-28T07:52:57;3.90;66.90
35591;DHT22;30355;50.556;10.012;2024-02-28T08:02:59;4.10;67.00
35591;DHT22;30355;50.556;10.012;2024-02-28T08:13:01;4.40;67.00
35591;DHT22;30355;50.556;10.012;2024-02-28T08:23:04;4.60;67.00
35591;DHT22;30355;50.556;10.012;2024-02-28T08:33:07;4.80;67.10
35591;DHT22;30355;50.556;10.012;2024-02-28T08:43:10;5.10;67.10
35591;DHT22;30355;50.556;10.012;2024-02-28T08:53:12;5.30;67.50
35591;DHT22;30355;50.556;10.012;2024-02-28T09:03:14;5.60;66.90
35591;DHT22;30355;50.556;10.012;2024-02-28T09:13:17;5.90;66.60
35591;DHT22;30355;50.556;10.012;2024-02-28T09:23:19;6.20;66.30
35591;DHT22;30355;50.556;10.012;2024-02-28T09:33:21;6.40;66.00
35591;DHT22;30355;50.556;10.012;2024-02-28T09:43:31;6.70;65.80
35591;DHT22;30355;50.556;10.012;2024-02-28T09:53:34;7.10;65.70
35591;DHT22;30355;50.556;10.012;2024-02-28T10:03:36;7.30;65.50
35591;DHT22;30355;50.556;10.012;2024-02-28T10:13:39;7.60;65.40
35591;DHT22;30355;50.556;10.012;2024-02-28T10:23:42;7.80;65.40
35591;DHT22;30355;50.556;10.012;2024-02-28T10:33:44;7.90;65.30
35591;DHT22;30355;50.556;10.012;2024-02-28T10:43:48;8.10;64.80
35591;DHT22;30355;50.556;10.012;2024-02-28T10:54:11;8.40;64.80
35591;DHT22;30355;50.556;10.012;2024-02-28T11:04:16;8.60;62.80
35591;DHT22;30355;50.556;10.012;2024-02-28T11:14:19;8.90;64.00
35591;DHT22;30355;50.556;10.012;2024-02-28T11:24:25;9.20;63.80
35591;DHT22;30355;50.556;10.012;2024-02-28T11:34:31;9.50;63.50
35591;DHT22;30355;50.556;10.012;2024-02-28T11:44:33;9.90;63.40
35591;DHT22;30355;50.556;10.012;2024-02-28T11:54:36;10.20;62.40
35591;DHT22;30355;50.556;10.012;2024-02-28T12:04:39;10.40;62.20
35591;DHT22;30355;50.556;10.012;2024-02-28T12:14:42;10.70;62.20
35591;DHT22;30355;50.556;10.012;2024-02-28T12:24:45;11.10;61.80
35591;DHT22;30355;50.556;10.012;2024-02-28T12:34:47;11.40;60.60
35591;DHT22;30355;50.556;10.012;2024-02-28T12:44:49;11.60;60.10
35591;DHT22;30355;50.556;10.012;2024-02-28T12:54:51;11.80;59.80
35591;DHT22;30355;50.556;10.012;2024-02-28T13:04:53;12.00;59.20
35591;DHT22;30355;50.556;10.012;2024-02-28T13:14:55;12.20;58.40
35591;DHT22;30355;50.556;10.012;2024-02-28T13:24:58;12.40;57.80
35591;DHT22;30355;50.556;10.012;2024-02-28T13:35:00;12.40;57.60
35591;DHT22;30355;50.556;10.012;2024-02-28T13:45:02;12.50;57.20
35591;DHT22;30355;50.556;10.012;2024-02-28T13:55:08;12.70;56.40
35591;DHT22;30355;50.556;10.012;2024-02-28T14:05:11;12.90;56.50
35591;DHT22;30355;50.556;10.012;2024-02-28T14:15:13;13.00;56.60
35591;DHT22;30355;50.556;10.012;2024-02-28T14:25:16;13.30;56.00
35591;DHT22;30355;50.556;10.012;2024-02-28T14:35:19;13.50;55.70
35591;DHT22;30355;50.556;10.012;2024-02-28T14:45:21;13.80;55.70
35591;DHT22;30355;50.556;10.012;2024-02-28T14:55:25;14.00;55.20
35591;DHT22;30355;50.556;10.012;2024-02-28T15:05:27;14.30;54.90
35591;DHT22;30355;50.556;10.012;2024-02-28T15:15:29;14.60;54.90
35591;DHT22;30355;50.556;10.012;2024-02-28T15:35:34;14.90;52.80
35591;DHT22;30355;50.556;10.012;2024-02-28T15:45:40;14.50;53.30
35591;DHT22;30355;50.556;10.012;2024-02-28T15:55:45;14.30;53.10
35591;DHT22;30355;50.556;10.012;2024-02-28T16:05:48;14.00;53.10
35591;DHT22;30355;50.556;10.012;2024-02-28T16:15:50;13.80;52.70
35591;DHT22;30355;50.556;10.012;2024-02-28T16:25:53;13.50;53.10
35591;DHT22;30355;50.556;10.012;2024-02-28T16:35:57;13.10;53.40
35591;DHT22;30355;50.556;10.012;2024-02-28T16:45:59;12.90;53.70
35591;DHT22;30355;50.556;10.012;2024-02-28T16:56:01;12.70;53.90
35591;DHT22;30355;50.556;10.012;2024-02-28T17:06:04;12.40;53.90
35591;DHT22;30355;50.556;10.012;2024-02-28T17:16:06;12.10;54.40
35591;DHT22;30355;50.556;10.012;2024-02-28T17:26:09;11.80;54.50
35591;DHT22;30355;50.556;10.012;2024-02-28T17:36:11;11.40;54.30
35591;DHT22;30355;50.556;10.012;2024-02-28T17:46:13;10.90;54.30
35591;DHT22;30355;50.556;10.012;2024-02-28T17:56:15;10.50;54.50
35591;DHT22;30355;50.556;10.012;2024-02-28T18:06:18;10.10;54.60
35591;DHT22;30355;50.556;10.012;2024-02-28T18:16:20;9.70;54.70
35591;DHT22;30355;50.556;10.012;2024-02-28T18:26:23;9.30;54.80
35591;DHT22;30355;50.556;10.012;2024-02-28T18:36:25;9.00;55.00
35591;DHT22;30355;50.556;10.012;2024-02-28T18:46:28;8.70;55.00
35591;DHT22;30355;50.556;10.012;2024-02-28T18:56:30;8.40;55.20
35591;DHT22;30355;50.556;10.012;2024-02-28T19:06:35;8.20;55.40
35591;DHT22;30355;50.556;10.012;2024-02-28T19:16:38;8.00;55.60
35591;DHT22;30355;50.556;10.012;2024-02-28T19:26:41;7.80;55.70
35591;DHT22;30355;50.556;10.012;2024-02-28T19:36:44;7.50;55.80
35591;DHT22;30355;50.556;10.012;2024-02-28T19:46:46;7.30;55.90
35591;DHT22;30355;50.556;10.012;2024-02-28T19:56:48;7.10;56.00
35591;DHT22;30355;50.556;10.012;2024-02-28T20:06:50;6.90;56.30
35591;DHT22;30355;50.556;10.012;2024-02-28T20:16:52;6.70;56.70
35591;DHT22;30355;50.556;10.012;2024-02-28T20:26:55;6.60;56.80
35591;DHT22;30355;50.556;10.012;2024-02-28T20:36:57;6.60;57.10
35591;DHT22;30355;50.556;10.012;2024-02-28T20:46:59;6.50;57.10
35591;DHT22;30355;50.556;10.012;2024-02-28T20:57:01;6.30;57.20
35591;DHT22;30355;50.556;10.012;2024-02-28T21:07:17;6.20;57.50
35591;DHT22;30355;50.556;10.012;2024-02-28T21:17:19;6.10;57.60
35591;DHT22;30355;50.556;10.012;2024-02-28T21:27:24;5.90;57.60
35591;DHT22;30355;50.556;10.012;2024-02-28T21:37:26;5.80;57.70
35591;DHT22;30355;50.556;10.012;2024-02-28T21:47:28;5.70;57.80
35591;DHT22;30355;50.556;10.012;2024-02-28T21:57:30;5.60;57.80
35591;DHT22;30355;50.556;10.012;2024-02-28T22:07:32;5.40;57.80
35591;DHT22;30355;50.556;10.012;2024-02-28T22:17:34;5.30;58.00
35591;DHT22;30355;50.556;10.012;2024-02-28T22:27:36;5.10;58.00
35591;DHT22;30355;50.556;10.012;2024-02-28T22:37:39;5.10;58.20
35591;DHT22;30355;50.556;10.012;2024-02-28T22:47:41;5.10;58.30
35591;DHT22;30355;50.556;10.012;2024-02-28T22:57:43;5.00;58.20
35591;DHT22;30355;50.556;10.012;2024-02-28T23:07:45;4.90;58.30
35591;DHT22;30355;50.556;10.012;2024-02-28T23:17:48;4.80;58.30
35591;DHT22;30355;50.556;10.012;2024-02-28T23:27:52;4.70;58.50
35591;DHT22;30355;50.556;10.012;2024-02-28T23:37:55;4.70;58.60
35591;DHT22;30355;50.556;10.012;2024-02-28T23:47:57;4.70;58.60
35591;DHT22;30355;50.556;10.012;2024-02-28T23:57:59;4.60;58.80
